sensor_id;sensor_type;location;lat;lon;timestamp;temperature;humidity
20700;DHT22;10511;51.232;9.420;2023-08-07T00:01:14;13.30;99.90
20700;DHT22;10511;51.232;9.420;2023-08-07T00:03:41;13.30;99.90
20700;DHT22;10511;51.232;9.420;2023-08-07T00:06:08;13.30;99.90
20700;DHT22;10511;51.232;9.420;2023-08-07T00:08:36;13.30;99.90
20700;DHT22;10511;51.232;9.420;2023-08-07T00:11:07;13.30;99.90
20700;DHT22;10511;51.232;9.420;2023-08-07T00:13:34;13.30;99.90
20700;DHT22;10511;51.232;9.420;2023-08-07T00:16:01;13.30;99.90
20700;DHT22;10511;51.232;9.420;2023-08-07T00:18:29;13.30;99.90
20700;DHT22;10511;51.232;9.420;2023-08-07T00:20:56;13.40;99.90
20700;DHT22;10511;51.232;9.420;2023-08-07T00:23:23;13.40;99.90
20700;DHT22;10511;51.232;9.420;2023-08-07T00:25:51;13.30;99.90
20700;DHT22;10511;51.232;9.420;2023-08-07T00:28:18;13.30;99.90
20700;DHT22;10511;51.232;9.420;2023-08-07T00:30:45;13.40;99.90
20700;DHT22;10511;51.232;9.420;2023-08-07T00:33:12;13.40;99.90
20700;DHT22;10511;51.232;9.420;2023-08-07T00:35:39;13.30;99.90
20700;DHT22;10511;51.232;9.420;2023-08-07T00:38:05;13.40;99.90
20700;DHT22;10511;51.232;9.420;2023-08-07T00:40:39;13.40;99.90
20700;DHT22;10511;51.232;9.420;2023-08-07T00:43:07;13.40;99.90
20700;DHT22;10511;51.232;9.420;2023-08-07T00:45:36;13.40;99.90
20700;DHT22;10511;51.232;9.420;2023-08-07T00:48:04;13.40;99.90
20700;DHT22;10511;51.232;9.420;2023-08-07T00:50:32;13.40;99.90
20700;DHT22;10511;51.232;9.420;2023-08-07T00:52:59;13.40;99.90
20700;DHT22;10511;51.232;9.420;2023-08-07T00:55:27;13.40;99.90
20700;DHT22;10511;51.232;9.420;2023-08-07T00:57:54;13.40;99.90
20700;DHT22;10511;51.232;9.420;2023-08-07T01:00:23;13.30;99.90
20700;DHT22;10511;51.232;9.420;2023-08-07T01:02:50;13.30;99.90
20700;DHT22;10511;51.232;9.420;2023-08-07T01:05:18;13.30;99.90
20700;DHT22;10511;51.232;9.420;2023-08-07T01:07:47;13.40;99.90
20700;DHT22;10511;51.232;9.420;2023-08-07T01:10:17;13.40;99.90
20700;DHT22;10511;51.232;9.420;2023-08-07T01:12:50;13.40;99.90
20700;DHT22;10511;51.232;9.420;2023-08-07T01:15:25;13.40;99.90
20700;DHT22;10511;51.232;9.420;2023-08-07T01:17:56;13.40;99.90
20700;DHT22;10511;51.232;9.420;2023-08-07T01:20:24;13.40;99.90
20700;DHT22;10511;51.232;9.420;2023-08-07T01:22:52;13.50;99.90
20700;DHT22;10511;51.232;9.420;2023-08-07T01:25:19;13.50;99.90
20700;DHT22;10511;51.232;9.420;2023-08-07T01:27:52;13.50;99.90
20700;DHT22;10511;51.232;9.420;2023-08-07T01:30:25;13.50;99.90
20700;DHT22;10511;51.232;9.420;2023-08-07T01:32:59;13.50;99.90
20700;DHT22;10511;51.232;9.420;2023-08-07T01:35:33;13.50;99.90
20700;DHT22;10511;51.232;9.420;2023-08-07T01:38:03;13.50;99.90
20700;DHT22;10511;51.232;9.420;2023-08-07T01:40:32;13.50;99.90
20700;DHT22;10511;51.232;9.420;2023-08-07T01:42:59;13.60;99.90
20700;DHT22;10511;51.232;9.420;2023-08-07T01:45:27;13.50;99.90
20700;DHT22;10511;51.232;9.420;2023-08-07T01:47:55;13.50;99.90
20700;DHT22;10511;51.232;9.420;2023-08-07T01:50:23;13.50;99.90
20700;DHT22;10511;51.232;9.420;2023-08-07T01:52:50;13.40;99.90
20700;DHT22;10511;51.232;9.420;2023-08-07T01:55:20;13.40;99.90
20700;DHT22;10511;51.232;9.420;2023-08-07T01:57:46;13.40;99.90
20700;DHT22;10511;51.232;9.420;2023-08-07T02:00:14;13.40;99.90
20700;DHT22;10511;51.232;9.420;2023-08-07T02:02:41;13.30;99.90
20700;DHT22;10511;51.232;9.420;2023-08-07T02:05:08;13.30;99.90
20700;DHT22;10511;51.232;9.420;2023-08-07T02:07:35;13.30;99.90
20700;DHT22;10511;51.232;9.420;2023-08-07T02:10:02;13.30;99.90
20700;DHT22;10511;51.232;9.420;2023-08-07T02:12:30;13.30;99.90
20700;DHT22;10511;51.232;9.420;2023-08-07T02:14:57;13.30;99.90
20700;DHT22;10511;51.232;9.420;2023-08-07T02:17:25;13.30;99.90
20700;DHT22;10511;51.232;9.420;2023-08-07T02:19:52;13.30;99.90
20700;DHT22;10511;51.232;9.420;2023-08-07T02:22:19;13.30;99.90
20700;DHT22;10511;51.232;9.420;2023-08-07T02:24:46;13.20;99.90
20700;DHT22;10511;51.232;9.420;2023-08-07T02:27:13;13.30;99.90
20700;DHT22;10511;51.232;9.420;2023-08-07T02:29:41;13.30;99.90
20700;DHT22;10511;51.232;9.420;2023-08-07T02:32:08;13.20;99.90
20700;DHT22;10511;51.232;9.420;2023-08-07T02:34:35;13.30;99.90
20700;DHT22;10511;51.232;9.420;2023-08-07T02:37:02;13.30;99.90
20700;DHT22;10511;51.232;9.420;2023-08-07T02:39:29;13.30;99.90
20700;DHT22;10511;51.232;9.420;2023-08-07T02:41:56;13.30;99.90
20700;DHT22;10511;51.232;9.420;2023-08-07T02:44:23;13.30;99.90
20700;DHT22;10511;51.232;9.420;2023-08-07T02:46:51;13.30;99.90
20700;DHT22;10511;51.232;9.420;2023-08-07T02:49:18;13.30;99.90
20700;DHT22;10511;51.232;9.420;2023-08-07T02:51:45;13.30;99.90
20700;DHT22;10511;51.232;9.420;2023-08-07T02:54:12;13.30;99.90
20700;DHT22;10511;51.232;9.420;2023-08-07T02:56:39;13.30;99.90
20700;DHT22;10511;51.232;9.420;2023-08-07T02:59:06;13.20;99.90
20700;DHT22;10511;51.232;9.420;2023-08-07T03:01:33;13.30;99.90
20700;DHT22;10511;51.232;9.420;2023-08-07T03:04:04;13.30;99.90
20700;DHT22;10511;51.232;9.420;2023-08-07T03:06:31;13.30;99.90
20700;DHT22;10511;51.232;9.420;2023-08-07T03:08:58;13.40;99.90
20700;DHT22;10511;51.232;9.420;2023-08-07T03:11:25;13.40;99.90
20700;DHT22;10511;51.232;9.420;2023-08-07T03:14:10;13.40;99.90
20700;DHT22;10511;51.232;9.420;2023-08-07T03:16:37;13.50;99.90
20700;DHT22;10511;51.232;9.420;2023-08-07T03:19:06;13.60;99.90
20700;DHT22;10511;51.232;9.420;2023-08-07T03:21:33;13.60;99.90
20700;DHT22;10511;51.232;9.420;2023-08-07T03:24:00;13.60;99.90
20700;DHT22;10511;51.232;9.420;2023-08-07T03:26:26;13.70;99.90
20700;DHT22;10511;51.232;9.420;2023-08-07T03:28:53;13.80;99.90
20700;DHT22;10511;51.232;9.420;2023-08-07T03:31:20;13.90;99.90
20700;DHT22;10511;51.232;9.420;2023-08-07T03:33:47;13.90;99.90
20700;DHT22;10511;51.232;9.420;2023-08-07T03:36:16;13.90;99.90
20700;DHT22;10511;51.232;9.420;2023-08-07T03:38:42;13.90;99.90
20700;DHT22;10511;51.232;9.420;2023-08-07T03:41:10;13.80;99.90
20700;DHT22;10511;51.232;9.420;2023-08-07T03:43:37;13.80;99.90
20700;DHT22;10511;51.232;9.420;2023-08-07T03:46:04;13.80;99.90
20700;DHT22;10511;51.232;9.420;2023-08-07T03:48:31;13.80;99.90
20700;DHT22;10511;51.232;9.420;2023-08-07T03:51:02;13.70;99.90
20700;DHT22;10511;51.232;9.420;2023-08-07T03:53:31;13.60;99.90
20700;DHT22;10511;51.232;9.420;2023-08-07T03:55:58;13.40;99.90
20700;DHT22;10511;51.232;9.420;2023-08-07T03:58:25;13.40;99.90
20700;DHT22;10511;51.232;9.420;2023-08-07T04:00:52;13.30;99.90
20700;DHT22;10511;51.232;9.420;2023-08-07T04:03:41;13.30;99.90
20700;DHT22;10511;51.232;9.420;2023-08-07T04:06:37;13.30;99.90
20700;DHT22;10511;51.232;9.420;2023-08-07T04:09:05;13.30;99.90
20700;DHT22;10511;51.232;9.420;2023-08-07T04:11:33;13.20;99.90
20700;DHT22;10511;51.232;9.420;2023-08-07T04:14:00;13.20;99.90
20700;DHT22;10511;51.232;9.420;2023-08-07T04:16:27;13.20;99.90
20700;DHT22;10511;51.232;9.420;2023-08-07T04:18:54;13.10;99.90
20700;DHT22;10511;51.232;9.420;2023-08-07T04:21:21;13.20;99.90
20700;DHT22;10511;51.232;9.420;2023-08-07T04:23:48;13.20;99.90
20700;DHT22;10511;51.232;9.420;2023-08-07T04:26:16;13.20;99.90
20700;DHT22;10511;51.232;9.420;2023-08-07T04:28:44;13.20;99.90
20700;DHT22;10511;51.232;9.420;2023-08-07T04:31:10;13.20;99.90
20700;DHT22;10511;51.232;9.420;2023-08-07T04:33:38;13.20;99.90
20700;DHT22;10511;51.232;9.420;2023-08-07T04:36:05;13.20;99.90
20700;DHT22;10511;51.232;9.420;2023-08-07T04:38:32;13.20;99.90
20700;DHT22;10511;51.232;9.420;2023-08-07T04:40:59;13.30;99.90
20700;DHT22;10511;51.232;9.420;2023-08-07T04:43:27;13.30;99.90
20700;DHT22;10511;51.232;9.420;2023-08-07T04:45:54;13.30;99.90
20700;DHT22;10511;51.232;9.420;2023-08-07T04:48:21;13.20;99.90
20700;DHT22;10511;51.232;9.420;2023-08-07T04:50:50;13.20;99.90
20700;DHT22;10511;51.232;9.420;2023-08-07T04:53:17;13.10;99.90
20700;DHT22;10511;51.232;9.420;2023-08-07T04:55:45;13.20;99.90
20700;DHT22;10511;51.232;9.420;2023-08-07T04:58:12;13.10;99.90
20700;DHT22;10511;51.232;9.420;2023-08-07T05:00:41;13.10;99.90
20700;DHT22;10511;51.232;9.420;2023-08-07T05:03:07;13.10;99.90
20700;DHT22;10511;51.232;9.420;2023-08-07T05:05:34;13.10;99.90
20700;DHT22;10511;51.232;9.420;2023-08-07T05:08:01;13.10;99.90
20700;DHT22;10511;51.232;9.420;2023-08-07T05:10:28;13.10;99.90
20700;DHT22;10511;51.232;9.420;2023-08-07T05:12:55;13.10;99.90
20700;DHT22;10511;51.232;9.420;2023-08-07T05:15:22;13.10;99.90
20700;DHT22;10511;51.232;9.420;2023-08-07T05:17:53;13.10;99.90
20700;DHT22;10511;51.232;9.420;2023-08-07T05:20:21;13.10;99.90
20700;DHT22;10511;51.232;9.420;2023-08-07T05:22:48;13.10;99.90
20700;DHT22;10511;51.232;9.420;2023-08-07T05:25:15;13.10;99.90
20700;DHT22;10511;51.232;9.420;2023-08-07T05:27:42;13.10;99.90
20700;DHT22;10511;51.232;9.420;2023-08-07T05:30:10;13.10;99.90
20700;DHT22;10511;51.232;9.420;2023-08-07T05:32:38;13.10;99.90
20700;DHT22;10511;51.232;9.420;2023-08-07T05:35:07;13.10;99.90
20700;DHT22;10511;51.232;9.420;2023-08-07T05:37:35;13.00;99.90
20700;DHT22;10511;51.232;9.420;2023-08-07T05:40:03;13.00;99.90
20700;DHT22;10511;51.232;9.420;2023-08-07T05:42:30;13.10;99.90
20700;DHT22;10511;51.232;9.420;2023-08-07T05:44:57;13.10;99.90
20700;DHT22;10511;51.232;9.420;2023-08-07T05:47:24;13.10;99.90
20700;DHT22;10511;51.232;9.420;2023-08-07T05:49:51;13.20;99.90
20700;DHT22;10511;51.232;9.420;2023-08-07T05:52:19;13.20;99.90
20700;DHT22;10511;51.232;9.420;2023-08-07T05:54:47;13.20;99.90
20700;DHT22;10511;51.232;9.420;2023-08-07T05:57:14;13.30;99.90
20700;DHT22;10511;51.232;9.420;2023-08-07T05:59:42;13.30;99.90
20700;DHT22;10511;51.232;9.420;2023-08-07T06:02:08;13.40;99.90
20700;DHT22;10511;51.232;9.420;2023-08-07T06:04:37;13.40;99.90
20700;DHT22;10511;51.232;9.420;2023-08-07T06:07:04;13.40;99.90
20700;DHT22;10511;51.232;9.420;2023-08-07T06:09:34;13.40;99.90
20700;DHT22;10511;51.232;9.420;2023-08-07T06:12:02;13.40;99.90
20700;DHT22;10511;51.232;9.420;2023-08-07T06:14:29;13.40;99.90
20700;DHT22;10511;51.232;9.420;2023-08-07T06:16:56;13.40;99.90
20700;DHT22;10511;51.232;9.420;2023-08-07T06:19:23;13.40;99.90
20700;DHT22;10511;51.232;9.420;2023-08-07T06:21:52;13.40;99.90
20700;DHT22;10511;51.232;9.420;2023-08-07T06:24:19;13.40;99.90
20700;DHT22;10511;51.232;9.420;2023-08-07T06:26:48;13.30;99.90
20700;DHT22;10511;51.232;9.420;2023-08-07T06:29:14;13.20;99.90
20700;DHT22;10511;51.232;9.420;2023-08-07T06:31:41;13.20;99.90
20700;DHT22;10511;51.232;9.420;2023-08-07T06:34:09;13.20;99.90
20700;DHT22;10511;51.232;9.420;2023-08-07T06:36:36;13.20;99.90
20700;DHT22;10511;51.232;9.420;2023-08-07T06:39:03;13.20;99.90
20700;DHT22;10511;51.232;9.420;2023-08-07T06:41:30;13.20;99.90
20700;DHT22;10511;51.232;9.420;2023-08-07T06:43:58;13.20;99.90
20700;DHT22;10511;51.232;9.420;2023-08-07T06:46:25;13.20;99.90
20700;DHT22;10511;51.232;9.420;2023-08-07T06:48:53;13.20;99.90
20700;DHT22;10511;51.232;9.420;2023-08-07T06:51:20;13.10;99.90
20700;DHT22;10511;51.232;9.420;2023-08-07T06:53:47;13.20;99.90
20700;DHT22;10511;51.232;9.420;2023-08-07T06:56:14;13.10;99.90
20700;DHT22;10511;51.232;9.420;2023-08-07T06:58:41;13.00;99.90
20700;DHT22;10511;51.232;9.420;2023-08-07T07:01:09;13.00;99.90
20700;DHT22;10511;51.232;9.420;2023-08-07T07:03:36;13.00;99.90
20700;DHT22;10511;51.232;9.420;2023-08-07T07:06:03;13.10;99.90
20700;DHT22;10511;51.232;9.420;2023-08-07T07:08:30;13.00;99.90
20700;DHT22;10511;51.232;9.420;2023-08-07T07:10:57;13.10;99.90
20700;DHT22;10511;51.232;9.420;2023-08-07T07:13:24;13.10;99.90
20700;DHT22;10511;51.232;9.420;2023-08-07T07:15:54;13.20;99.90
20700;DHT22;10511;51.232;9.420;2023-08-07T07:18:23;13.20;99.90
20700;DHT22;10511;51.232;9.420;2023-08-07T07:20:57;13.20;99.90
20700;DHT22;10511;51.232;9.420;2023-08-07T07:23:26;13.20;99.90
20700;DHT22;10511;51.232;9.420;2023-08-07T07:25:53;13.20;99.90
20700;DHT22;10511;51.232;9.420;2023-08-07T07:28:20;13.20;99.90
20700;DHT22;10511;51.232;9.420;2023-08-07T07:30:48;13.20;99.90
20700;DHT22;10511;51.232;9.420;2023-08-07T07:33:16;13.30;99.90
20700;DHT22;10511;51.232;9.420;2023-08-07T07:35:44;13.30;99.90
20700;DHT22;10511;51.232;9.420;2023-08-07T07:38:11;13.40;99.90
20700;DHT22;10511;51.232;9.420;2023-08-07T07:40:38;13.50;99.90
20700;DHT22;10511;51.232;9.420;2023-08-07T07:43:05;13.60;99.90
20700;DHT22;10511;51.232;9.420;2023-08-07T07:45:32;13.60;99.90
20700;DHT22;10511;51.232;9.420;2023-08-07T07:47:59;13.60;99.90
20700;DHT22;10511;51.232;9.420;2023-08-07T07:50:26;13.70;99.90
20700;DHT22;10511;51.232;9.420;2023-08-07T07:52:54;13.80;99.90
20700;DHT22;10511;51.232;9.420;2023-08-07T07:55:21;13.80;99.90
20700;DHT22;10511;51.232;9.420;2023-08-07T07:57:48;13.80;99.90
20700;DHT22;10511;51.232;9.420;2023-08-07T08:00:16;13.80;99.90
20700;DHT22;10511;51.232;9.420;2023-08-07T08:02:43;13.90;99.90
20700;DHT22;10511;51.232;9.420;2023-08-07T08:05:10;14.00;99.90
20700;DHT22;10511;51.232;9.420;2023-08-07T08:07:38;14.00;99.90
20700;DHT22;10511;51.232;9.420;2023-08-07T08:10:08;14.00;99.90
20700;DHT22;10511;51.232;9.420;2023-08-07T08:12:36;14.00;99.90
20700;DHT22;10511;51.232;9.420;2023-08-07T08:15:03;14.00;99.90
20700;DHT22;10511;51.232;9.420;2023-08-07T08:17:30;14.00;99.90
20700;DHT22;10511;51.232;9.420;2023-08-07T08:19:57;14.00;99.90
20700;DHT22;10511;51.232;9.420;2023-08-07T08:22:24;14.00;99.90
20700;DHT22;10511;51.232;9.420;2023-08-07T08:24:51;14.00;99.90
20700;DHT22;10511;51.232;9.420;2023-08-07T08:27:20;14.10;99.90
20700;DHT22;10511;51.232;9.420;2023-08-07T08:29:47;14.20;99.90
20700;DHT22;10511;51.232;9.420;2023-08-07T08:32:14;14.20;99.90
20700;DHT22;10511;51.232;9.420;2023-08-07T08:34:41;14.20;99.90
20700;DHT22;10511;51.232;9.420;2023-08-07T08:37:08;14.30;99.90
20700;DHT22;10511;51.232;9.420;2023-08-07T08:39:36;14.40;99.90
20700;DHT22;10511;51.232;9.420;2023-08-07T08:42:04;14.30;99.90
20700;DHT22;10511;51.232;9.420;2023-08-07T08:44:36;14.30;99.90
20700;DHT22;10511;51.232;9.420;2023-08-07T08:47:06;14.30;99.90
20700;DHT22;10511;51.232;9.420;2023-08-07T08:49:37;14.30;99.90
20700;DHT22;10511;51.232;9.420;2023-08-07T08:52:07;14.30;99.90
20700;DHT22;10511;51.232;9.420;2023-08-07T08:54:34;14.30;99.90
20700;DHT22;10511;51.232;9.420;2023-08-07T08:57:02;14.40;99.90
20700;DHT22;10511;51.232;9.420;2023-08-07T08:59:30;14.30;99.90
20700;DHT22;10511;51.232;9.420;2023-08-07T09:01:59;14.30;99.90
20700;DHT22;10511;51.232;9.420;2023-08-07T09:04:26;14.40;99.90
20700;DHT22;10511;51.232;9.420;2023-08-07T09:06:53;14.30;99.90
20700;DHT22;10511;51.232;9.420;2023-08-07T09:09:20;14.30;99.90
20700;DHT22;10511;51.232;9.420;2023-08-07T09:11:48;14.40;99.90
20700;DHT22;10511;51.232;9.420;2023-08-07T09:14:19;14.50;99.90
20700;DHT22;10511;51.232;9.420;2023-08-07T09:16:48;14.60;99.90
20700;DHT22;10511;51.232;9.420;2023-08-07T09:19:17;14.80;99.90
20700;DHT22;10511;51.232;9.420;2023-08-07T09:21:44;14.80;99.90
20700;DHT22;10511;51.232;9.420;2023-08-07T09:24:11;14.90;99.90
20700;DHT22;10511;51.232;9.420;2023-08-07T09:26:39;15.10;99.90
20700;DHT22;10511;51.232;9.420;2023-08-07T09:29:08;15.10;99.90
20700;DHT22;10511;51.232;9.420;2023-08-07T09:31:36;15.10;99.90
20700;DHT22;10511;51.232;9.420;2023-08-07T09:34:04;15.10;99.90
20700;DHT22;10511;51.232;9.420;2023-08-07T09:36:33;15.10;99.90
20700;DHT22;10511;51.232;9.420;2023-08-07T09:39:01;15.10;99.90
20700;DHT22;10511;51.232;9.420;2023-08-07T09:41:29;15.10;99.90
20700;DHT22;10511;51.232;9.420;2023-08-07T09:43:56;15.10;99.90
20700;DHT22;10511;51.232;9.420;2023-08-07T09:46:25;15.00;99.90
20700;DHT22;10511;51.232;9.420;2023-08-07T09:48:57;15.00;99.90
20700;DHT22;10511;51.232;9.420;2023-08-07T09:51:24;15.10;99.90
20700;DHT22;10511;51.232;9.420;2023-08-07T09:53:52;15.20;99.90
20700;DHT22;10511;51.232;9.420;2023-08-07T09:56:19;15.10;99.90
20700;DHT22;10511;51.232;9.420;2023-08-07T09:58:47;15.10;99.90
20700;DHT22;10511;51.232;9.420;2023-08-07T10:01:16;14.90;99.90
20700;DHT22;10511;51.232;9.420;2023-08-07T10:03:43;14.70;99.90
20700;DHT22;10511;51.232;9.420;2023-08-07T10:06:12;14.70;99.90
20700;DHT22;10511;51.232;9.420;2023-08-07T10:08:39;14.80;99.90
20700;DHT22;10511;51.232;9.420;2023-08-07T10:11:10;14.90;99.90
20700;DHT22;10511;51.232;9.420;2023-08-07T10:13:37;15.00;99.90
20700;DHT22;10511;51.232;9.420;2023-08-07T10:16:05;14.90;99.90
20700;DHT22;10511;51.232;9.420;2023-08-07T10:18:32;14.80;99.90
20700;DHT22;10511;51.232;9.420;2023-08-07T10:21:01;14.80;99.90
20700;DHT22;10511;51.232;9.420;2023-08-07T10:23:28;14.80;99.90
20700;DHT22;10511;51.232;9.420;2023-08-07T10:25:56;14.80;99.90
20700;DHT22;10511;51.232;9.420;2023-08-07T10:28:26;14.90;99.90
20700;DHT22;10511;51.232;9.420;2023-08-07T10:30:53;15.10;99.90
20700;DHT22;10511;51.232;9.420;2023-08-07T10:33:21;15.20;99.90
20700;DHT22;10511;51.232;9.420;2023-08-07T10:35:52;15.30;99.90
20700;DHT22;10511;51.232;9.420;2023-08-07T10:38:22;15.40;99.90
20700;DHT22;10511;51.232;9.420;2023-08-07T10:41:00;15.40;99.90
20700;DHT22;10511;51.232;9.420;2023-08-07T10:43:29;15.30;99.90
20700;DHT22;10511;51.232;9.420;2023-08-07T10:46:03;15.10;99.90
20700;DHT22;10511;51.232;9.420;2023-08-07T10:48:38;15.00;99.90
20700;DHT22;10511;51.232;9.420;2023-08-07T10:51:05;14.90;99.90
20700;DHT22;10511;51.232;9.420;2023-08-07T10:53:34;14.90;99.90
20700;DHT22;10511;51.232;9.420;2023-08-07T10:56:02;14.90;99.90
20700;DHT22;10511;51.232;9.420;2023-08-07T10:58:31;14.80;99.90
20700;DHT22;10511;51.232;9.420;2023-08-07T11:01:21;14.80;99.90
20700;DHT22;10511;51.232;9.420;2023-08-07T11:04:05;14.90;99.90
20700;DHT22;10511;51.232;9.420;2023-08-07T11:06:34;15.00;99.90
20700;DHT22;10511;51.232;9.420;2023-08-07T11:09:02;15.00;99.90
20700;DHT22;10511;51.232;9.420;2023-08-07T11:11:33;15.00;99.90
20700;DHT22;10511;51.232;9.420;2023-08-07T11:14:06;15.10;99.90
20700;DHT22;10511;51.232;9.420;2023-08-07T11:16:34;15.00;99.90
20700;DHT22;10511;51.232;9.420;2023-08-07T11:19:01;15.20;99.90
20700;DHT22;10511;51.232;9.420;2023-08-07T11:21:30;15.20;99.90
20700;DHT22;10511;51.232;9.420;2023-08-07T11:23:57;15.20;99.90
20700;DHT22;10511;51.232;9.420;2023-08-07T11:26:25;15.20;99.90
20700;DHT22;10511;51.232;9.420;2023-08-07T11:28:53;15.20;99.90
20700;DHT22;10511;51.232;9.420;2023-08-07T11:31:23;15.20;99.90
20700;DHT22;10511;51.232;9.420;2023-08-07T11:33:51;15.20;99.90
20700;DHT22;10511;51.232;9.420;2023-08-07T11:36:18;15.10;99.90
20700;DHT22;10511;51.232;9.420;2023-08-07T11:38:45;15.00;99.90
20700;DHT22;10511;51.232;9.420;2023-08-07T11:41:15;15.10;99.90
20700;DHT22;10511;51.232;9.420;2023-08-07T11:43:43;15.10;99.90
20700;DHT22;10511;51.232;9.420;2023-08-07T11:46:12;15.20;99.90
20700;DHT22;10511;51.232;9.420;2023-08-07T11:48:42;15.30;99.90
20700;DHT22;10511;51.232;9.420;2023-08-07T11:51:09;15.50;99.90
20700;DHT22;10511;51.232;9.420;2023-08-07T11:53:38;15.50;99.90
20700;DHT22;10511;51.232;9.420;2023-08-07T11:56:07;15.60;99.90
20700;DHT22;10511;51.232;9.420;2023-08-07T11:58:36;15.40;99.90
20700;DHT22;10511;51.232;9.420;2023-08-07T12:01:04;15.50;99.90
20700;DHT22;10511;51.232;9.420;2023-08-07T12:03:32;15.60;99.90
20700;DHT22;10511;51.232;9.420;2023-08-07T12:06:03;15.70;99.90
20700;DHT22;10511;51.232;9.420;2023-08-07T12:08:34;15.90;99.90
20700;DHT22;10511;51.232;9.420;2023-08-07T12:11:03;16.20;99.90
20700;DHT22;10511;51.232;9.420;2023-08-07T12:13:31;16.40;99.90
20700;DHT22;10511;51.232;9.420;2023-08-07T12:16:01;16.50;99.90
20700;DHT22;10511;51.232;9.420;2023-08-07T12:18:29;16.40;99.90
20700;DHT22;10511;51.232;9.420;2023-08-07T12:21:02;16.20;99.90
20700;DHT22;10511;51.232;9.420;2023-08-07T12:23:32;16.20;99.90
20700;DHT22;10511;51.232;9.420;2023-08-07T12:25:59;16.10;99.90
20700;DHT22;10511;51.232;9.420;2023-08-07T12:28:26;16.10;99.90
20700;DHT22;10511;51.232;9.420;2023-08-07T12:30:53;16.10;99.90
20700;DHT22;10511;51.232;9.420;2023-08-07T12:33:20;15.80;99.90
20700;DHT22;10511;51.232;9.420;2023-08-07T12:35:47;15.50;99.90
20700;DHT22;10511;51.232;9.420;2023-08-07T12:38:15;15.40;99.90
20700;DHT22;10511;51.232;9.420;2023-08-07T12:40:43;15.40;99.90
20700;DHT22;10511;51.232;9.420;2023-08-07T12:43:10;15.50;99.90
20700;DHT22;10511;51.232;9.420;2023-08-07T12:45:37;15.80;99.90
20700;DHT22;10511;51.232;9.420;2023-08-07T12:48:05;16.00;99.90
20700;DHT22;10511;51.232;9.420;2023-08-07T12:50:33;16.40;99.90
20700;DHT22;10511;51.232;9.420;2023-08-07T12:53:00;16.60;99.90
20700;DHT22;10511;51.232;9.420;2023-08-07T12:55:29;16.80;99.90
20700;DHT22;10511;51.232;9.420;2023-08-07T12:57:56;17.00;99.90
20700;DHT22;10511;51.232;9.420;2023-08-07T13:00:23;17.10;99.90
20700;DHT22;10511;51.232;9.420;2023-08-07T13:02:51;17.00;99.90
20700;DHT22;10511;51.232;9.420;2023-08-07T13:05:28;16.90;99.90
20700;DHT22;10511;51.232;9.420;2023-08-07T13:07:55;16.70;99.90
20700;DHT22;10511;51.232;9.420;2023-08-07T13:10:24;16.60;99.90
20700;DHT22;10511;51.232;9.420;2023-08-07T13:12:55;16.60;99.90
20700;DHT22;10511;51.232;9.420;2023-08-07T13:15:21;16.70;99.90
20700;DHT22;10511;51.232;9.420;2023-08-07T13:17:48;17.10;99.90
20700;DHT22;10511;51.232;9.420;2023-08-07T13:20:15;17.40;99.90
20700;DHT22;10511;51.232;9.420;2023-08-07T13:22:44;17.30;99.90
20700;DHT22;10511;51.232;9.420;2023-08-07T13:25:11;17.00;99.90
20700;DHT22;10511;51.232;9.420;2023-08-07T13:27:39;17.00;99.90
20700;DHT22;10511;51.232;9.420;2023-08-07T13:30:09;17.00;99.90
20700;DHT22;10511;51.232;9.420;2023-08-07T13:32:36;17.30;99.90
20700;DHT22;10511;51.232;9.420;2023-08-07T13:35:04;17.60;99.90
20700;DHT22;10511;51.232;9.420;2023-08-07T13:37:31;17.60;99.90
20700;DHT22;10511;51.232;9.420;2023-08-07T13:39:59;17.50;99.90
20700;DHT22;10511;51.232;9.420;2023-08-07T13:42:26;17.40;99.90
20700;DHT22;10511;51.232;9.420;2023-08-07T13:44:54;17.20;99.90
20700;DHT22;10511;51.232;9.420;2023-08-07T13:47:22;16.90;99.90
20700;DHT22;10511;51.232;9.420;2023-08-07T13:49:51;16.70;99.90
20700;DHT22;10511;51.232;9.420;2023-08-07T13:52:19;16.60;99.90
20700;DHT22;10511;51.232;9.420;2023-08-07T13:54:46;16.90;99.90
20700;DHT22;10511;51.232;9.420;2023-08-07T13:57:13;17.30;99.90
20700;DHT22;10511;51.232;9.420;2023-08-07T13:59:41;17.80;99.90
20700;DHT22;10511;51.232;9.420;2023-08-07T14:02:11;18.10;99.90
20700;DHT22;10511;51.232;9.420;2023-08-07T14:04:40;18.30;99.90
20700;DHT22;10511;51.232;9.420;2023-08-07T14:07:11;18.40;99.90
20700;DHT22;10511;51.232;9.420;2023-08-07T14:09:40;18.40;99.90
20700;DHT22;10511;51.232;9.420;2023-08-07T14:12:09;18.20;99.90
20700;DHT22;10511;51.232;9.420;2023-08-07T14:14:36;17.90;99.90
20700;DHT22;10511;51.232;9.420;2023-08-07T14:17:03;17.70;99.90
20700;DHT22;10511;51.232;9.420;2023-08-07T14:19:30;17.60;99.90
20700;DHT22;10511;51.232;9.420;2023-08-07T14:21:59;17.60;99.90
20700;DHT22;10511;51.232;9.420;2023-08-07T14:24:27;17.40;99.90
20700;DHT22;10511;51.232;9.420;2023-08-07T14:26:54;17.30;99.90
20700;DHT22;10511;51.232;9.420;2023-08-07T14:29:21;17.30;99.90
20700;DHT22;10511;51.232;9.420;2023-08-07T14:31:49;17.50;99.90
20700;DHT22;10511;51.232;9.420;2023-08-07T14:34:16;17.90;99.90
20700;DHT22;10511;51.232;9.420;2023-08-07T14:36:43;18.10;99.90
20700;DHT22;10511;51.232;9.420;2023-08-07T14:39:12;18.30;99.90
20700;DHT22;10511;51.232;9.420;2023-08-07T14:41:40;17.90;99.90
20700;DHT22;10511;51.232;9.420;2023-08-07T14:44:07;17.80;99.90
20700;DHT22;10511;51.232;9.420;2023-08-07T14:46:34;18.00;99.90
20700;DHT22;10511;51.232;9.420;2023-08-07T14:49:02;18.10;99.90
20700;DHT22;10511;51.232;9.420;2023-08-07T14:51:29;18.10;99.90
20700;DHT22;10511;51.232;9.420;2023-08-07T14:53:57;18.10;99.90
20700;DHT22;10511;51.232;9.420;2023-08-07T14:56:26;18.30;99.90
20700;DHT22;10511;51.232;9.420;2023-08-07T14:58:54;18.40;99.90
20700;DHT22;10511;51.232;9.420;2023-08-07T15:01:21;18.50;99.90
20700;DHT22;10511;51.232;9.420;2023-08-07T15:03:48;18.70;99.90
20700;DHT22;10511;51.232;9.420;2023-08-07T15:06:15;18.60;99.90
20700;DHT22;10511;51.232;9.420;2023-08-07T15:08:42;18.30;99.90
20700;DHT22;10511;51.232;9.420;2023-08-07T15:11:09;18.30;99.90
20700;DHT22;10511;51.232;9.420;2023-08-07T15:13:37;18.40;99.90
20700;DHT22;10511;51.232;9.420;2023-08-07T15:16:05;18.60;99.90
20700;DHT22;10511;51.232;9.420;2023-08-07T15:18:32;18.80;99.90
20700;DHT22;10511;51.232;9.420;2023-08-07T15:20:59;18.80;99.90
20700;DHT22;10511;51.232;9.420;2023-08-07T15:23:27;18.70;99.90
20700;DHT22;10511;51.232;9.420;2023-08-07T15:25:54;18.50;99.90
20700;DHT22;10511;51.232;9.420;2023-08-07T15:28:21;18.80;99.90
20700;DHT22;10511;51.232;9.420;2023-08-07T15:30:50;18.70;99.90
20700;DHT22;10511;51.232;9.420;2023-08-07T15:33:18;18.70;99.90
20700;DHT22;10511;51.232;9.420;2023-08-07T15:35:45;18.80;99.90